Time;durP1;ratioP1;P1;durP2;ratioP2;P2;SDS_P1;SDS_P2;PMS_P1;PMS_P2;Temp;Humidity;BMP_temperature;BMP_pressure;BME280_temperature;BME280_humidity;BME280_pressure;Samples;Min_cycle;Max_cycle;Signal;HPM_P1;HPM_P2
2021/12/26 00:02:24;;;;;;;2.20;0.05;;;-3.70;99.90;;;;;;4995098;28;20105;-74
2021/12/26 00:04:50;;;;;;;1.20;0.20;;;-3.70;99.90;;;;;;4995136;28;20070;-75
2021/12/26 00:07:17;;;;;;;1.63;0.10;;;-3.70;99.90;;;;;;4994713;28;20019;-74
2021/12/26 00:09:42;;;;;;;1.05;0.15;;;-3.70;99.90;;;;;;4977380;28;20038;-73
2021/12/26 00:12:08;;;;;;;0.93;0.10;;;-3.70;99.90;;;;;;4993125;28;20052;-74
2021/12/26 00:14:34;;;;;;;1.40;0.00;;;-3.70;99.90;;;;;;5002765;28;20508;-74
2021/12/26 00:17:00;;;;;;;0.40;0.03;;;-3.80;99.90;;;;;;5014716;28;20105;-74
2021/12/26 00:19:25;;;;;;;3.25;0.00;;;-3.80;99.90;;;;;;5014434;28;20022;-73
2021/12/26 00:21:51;;;;;;;2.20;0.20;;;-3.70;99.90;;;;;;5014260;28;20421;-74
2021/12/26 00:24:16;;;;;;;3.53;0.10;;;-3.80;99.90;;;;;;5012832;28;20034;-75
2021/12/26 00:26:42;;;;;;;1.80;0.00;;;-3.80;99.90;;;;;;5014403;28;20014;-75
2021/12/26 00:29:08;;;;;;;1.27;0.05;;;-3.80;99.90;;;;;;5012985;28;20390;-75
2021/12/26 00:31:33;;;;;;;1.58;0.30;;;-3.70;99.90;;;;;;5014368;28;20033;-75
2021/12/26 00:33:59;;;;;;;5.18;0.00;;;-3.70;99.90;;;;;;4996620;28;20014;-74
2021/12/26 00:36:25;;;;;;;0.25;0.00;;;-3.70;99.90;;;;;;5014745;28;20026;-74
2021/12/26 00:38:50;;;;;;;0.98;0.22;;;-3.80;99.90;;;;;;4996497;28;20080;-75
2021/12/26 00:41:16;;;;;;;1.00;0.05;;;-3.80;99.90;;;;;;5014176;28;20390;-74
2021/12/26 00:43:42;;;;;;;0.63;0.00;;;-3.80;99.80;;;;;;5013911;28;20422;-74
2021/12/26 00:46:08;;;;;;;2.70;0.10;;;-3.70;99.60;;;;;;5013708;28;20080;-74
2021/12/26 00:48:34;;;;;;;3.65;0.10;;;-3.70;99.90;;;;;;4996078;28;20025;-74
2021/12/26 00:51:00;;;;;;;1.08;0.20;;;-3.80;99.90;;;;;;5014077;28;20022;-74
2021/12/26 00:53:26;;;;;;;0.40;0.10;;;-3.80;99.90;;;;;;4996068;28;20030;-74
2021/12/26 00:55:51;;;;;;;1.92;0.10;;;-3.80;99.60;;;;;;4996265;28;20064;-74
2021/12/26 00:58:17;;;;;;;0.63;0.00;;;-3.80;99.90;;;;;;5014426;28;20467;-74
2021/12/26 01:00:47;;;;;;;0.50;0.10;;;-3.80;99.90;;;;;;4996267;28;20014;-74
2021/12/26 01:03:14;;;;;;;3.30;0.10;;;-3.80;99.90;;;;;;4998245;28;20023;-74
2021/12/26 01:05:43;;;;;;;0.20;0.00;;;-3.70;99.90;;;;;;4994619;28;20109;-74
2021/12/26 01:08:12;;;;;;;0.95;0.00;;;-3.70;99.90;;;;;;4994353;28;20027;-74
2021/12/26 01:10:53;;;;;;;1.17;0.15;;;-3.70;99.90;;;;;;4993096;28;20022;-74
2021/12/26 01:13:36;;;;;;;1.00;0.32;;;-3.70;99.90;;;;;;4993095;28;20050;-75
2021/12/26 01:16:05;;;;;;;1.58;0.10;;;-3.80;99.90;;;;;;4976923;28;20030;-75
2021/12/26 01:18:34;;;;;;;1.02;0.10;;;-3.80;99.90;;;;;;4993190;28;20538;-75
2021/12/26 01:21:15;;;;;;;1.52;0.00;;;-3.90;99.90;;;;;;4993285;28;20076;-75
2021/12/26 01:23:42;;;;;;;0.93;0.00;;;-3.80;99.90;;;;;;4976822;28;20027;-75
2021/12/26 01:26:08;;;;;;;1.33;0.10;;;-3.90;99.90;;;;;;4997865;28;20023;-75
2021/12/26 01:28:34;;;;;;;1.48;0.17;;;-3.90;99.90;;;;;;4980413;28;20092;-75
2021/12/26 01:31:00;;;;;;;2.45;0.00;;;-3.90;99.90;;;;;;4997705;28;20018;-75
2021/12/26 01:33:26;;;;;;;1.45;0.08;;;-3.90;99.90;;;;;;4997986;28;20126;-75
2021/12/26 01:35:52;;;;;;;1.85;0.10;;;-3.90;99.90;;;;;;4997711;28;20029;-75
2021/12/26 01:38:18;;;;;;;1.38;0.00;;;-3.90;99.90;;;;;;4980150;28;20026;-75
2021/12/26 01:40:50;;;;;;;2.03;0.08;;;-3.90;99.90;;;;;;4980292;28;20029;-75
2021/12/26 01:43:20;;;;;;;5.22;0.10;;;-3.90;99.90;;;;;;4996642;28;20080;-75
2021/12/26 01:45:47;;;;;;;0.60;0.00;;;-3.90;99.90;;;;;;4997622;28;20502;-75
2021/12/26 01:48:15;;;;;;;2.00;0.22;;;-3.90;99.90;;;;;;4997982;28;20022;-75
2021/12/26 01:50:41;;;;;;;1.80;0.20;;;-3.90;99.90;;;;;;4997877;28;20029;-75
2021/12/26 01:53:09;;;;;;;2.05;0.22;;;-3.80;99.90;;;;;;5009627;28;20076;-75
2021/12/26 01:55:44;;;;;;;0.93;0.00;;;-3.80;99.10;;;;;;5016585;28;20018;-75
2021/12/26 01:58:15;;;;;;;1.75;0.10;;;-3.80;99.90;;;;;;5016798;28;20034;-75
2021/12/26 02:00:44;;;;;;;2.60;0.15;;;-3.80;99.70;;;;;;5016716;28;20048;-75
2021/12/26 02:03:10;;;;;;;0.75;0.00;;;-3.80;99.90;;;;;;5016670;28;20038;-75
2021/12/26 02:05:35;;;;;;;0.90;0.03;;;-3.70;99.80;;;;;;4998954;28;20022;-74
2021/12/26 02:08:01;;;;;;;1.42;0.00;;;-3.70;99.10;;;;;;4999316;28;20018;-75
2021/12/26 02:10:27;;;;;;;3.83;0.25;;;-3.70;99.80;;;;;;5016800;28;20022;-75
2021/12/26 02:12:52;;;;;;;0.55;0.00;;;-3.70;99.90;;;;;;5016669;28;20113;-74
2021/12/26 02:15:18;;;;;;;2.17;0.00;;;-3.60;98.90;;;;;;5016866;28;20025;-75
2021/12/26 02:17:44;;;;;;;0.28;0.00;;;-3.60;99.20;;;;;;5016714;28;20092;-74
2021/12/26 02:20:45;;;;;;;1.65;0.00;;;-3.60;99.00;;;;;;5016336;28;20045;-75
2021/12/26 02:23:19;;;;;;;0.45;0.08;;;-3.50;98.80;;;;;;5016318;28;20091;-75
2021/12/26 02:28:23;;;;;;;1.45;0.10;;;-3.50;98.70;;;;;;5016398;28;20022;-75
2021/12/26 02:30:50;;;;;;;1.27;0.10;;;-3.40;98.70;;;;;;5016415;28;20021;-75
2021/12/26 02:33:18;;;;;;;0.20;0.00;;;-3.30;97.80;;;;;;5016257;28;20117;-75
2021/12/26 02:35:44;;;;;;;1.30;0.03;;;-3.30;98.70;;;;;;5016218;28;20081;-75
2021/12/26 02:38:11;;;;;;;2.45;0.10;;;-3.30;97.80;;;;;;5016046;28;20061;-74
2021/12/26 02:40:38;;;;;;;1.50;0.00;;;-3.30;98.90;;;;;;5016136;28;20092;-75
2021/12/26 02:43:05;;;;;;;1.58;0.20;;;-3.20;96.50;;;;;;4998396;28;20025;-75
2021/12/26 02:45:31;;;;;;;1.05;0.10;;;-3.20;95.80;;;;;;4998482;28;20033;-75
2021/12/26 02:47:57;;;;;;;0.28;0.00;;;-3.20;95.00;;;;;;5015968;28;20022;-74
2021/12/26 02:50:26;;;;;;;3.60;0.00;;;-3.30;96.00;;;;;;5016349;28;20022;-75
2021/12/26 02:52:54;;;;;;;3.72;0.00;;;-3.30;95.90;;;;;;4999840;28;20480;-75
2021/12/26 02:55:21;;;;;;;2.30;0.15;;;-3.40;96.00;;;;;;4996280;28;20554;-75
2021/12/26 02:57:49;;;;;;;1.25;0.10;;;-3.40;96.20;;;;;;4996086;28;20031;-75
2021/12/26 03:00:17;;;;;;;0.98;0.00;;;-3.40;95.30;;;;;;4996260;28;20031;-75
2021/12/26 03:02:45;;;;;;;2.58;0.10;;;-3.50;97.90;;;;;;4996217;28;20026;-75
2021/12/26 03:05:12;;;;;;;1.58;0.00;;;-3.50;97.20;;;;;;4996168;28;20032;-75
2021/12/26 03:07:38;;;;;;;0.82;0.10;;;-3.50;97.60;;;;;;4996765;28;20472;-75
2021/12/26 03:10:09;;;;;;;1.15;0.00;;;-3.60;97.20;;;;;;5016118;28;20072;-75
2021/12/26 03:12:40;;;;;;;3.15;0.05;;;-3.70;97.40;;;;;;4997770;28;20018;-75
2021/12/26 03:15:06;;;;;;;2.10;0.08;;;-3.70;97.90;;;;;;4997740;28;20048;-75
2021/12/26 03:17:31;;;;;;;0.20;0.00;;;-3.70;98.30;;;;;;5015284;28;20474;-75
2021/12/26 03:19:57;;;;;;;0.73;0.00;;;-3.70;97.20;;;;;;5014656;28;20486;-75
2021/12/26 03:22:25;;;;;;;1.42;0.00;;;-3.70;97.80;;;;;;5015764;28;20038;-75
2021/12/26 03:24:51;;;;;;;2.17;0.00;;;-3.80;97.90;;;;;;5013058;28;20072;-74
2021/12/26 03:27:17;;;;;;;1.38;0.00;;;-3.80;97.30;;;;;;4995524;28;20404;-74
2021/12/26 03:29:42;;;;;;;0.85;0.10;;;-3.80;99.40;;;;;;4994556;28;20037;-74
2021/12/26 03:32:08;;;;;;;1.08;0.00;;;-3.80;98.60;;;;;;4978622;28;20022;-74
2021/12/26 03:34:34;;;;;;;0.82;0.00;;;-3.80;97.20;;;;;;4978028;28;20030;-75
2021/12/26 03:37:00;;;;;;;0.80;0.00;;;-3.80;96.80;;;;;;4995648;28;20022;-75
2021/12/26 03:39:25;;;;;;;1.13;0.17;;;-3.80;98.40;;;;;;4995708;28;20042;-75
2021/12/26 03:41:53;;;;;;;0.40;0.00;;;-3.90;99.10;;;;;;4995138;28;20113;-74
2021/12/26 03:44:18;;;;;;;1.60;0.10;;;-3.90;98.70;;;;;;4995321;28;20364;-75
2021/12/26 03:46:44;;;;;;;0.30;0.10;;;-3.90;98.80;;;;;;4993500;28;20080;-74
2021/12/26 03:49:10;;;;;;;0.45;0.10;;;-3.90;97.80;;;;;;4995310;28;20026;-75
2021/12/26 03:51:36;;;;;;;0.80;0.08;;;-3.90;99.40;;;;;;4994045;28;20088;-75
2021/12/26 03:54:05;;;;;;;0.25;0.05;;;-3.90;98.10;;;;;;4977705;28;20532;-73
2021/12/26 03:56:31;;;;;;;1.80;0.00;;;-3.90;98.80;;;;;;4993933;28;20059;-76
2021/12/26 03:58:58;;;;;;;0.85;0.00;;;-3.90;98.30;;;;;;4994976;28;20034;-74
2021/12/26 04:01:25;;;;;;;0.65;0.10;;;-3.90;97.60;;;;;;4993872;28;20061;-75
2021/12/26 04:03:50;;;;;;;1.38;0.08;;;-3.90;99.80;;;;;;4999182;28;20052;-76
2021/12/26 04:06:16;;;;;;;2.17;0.13;;;-3.90;99.10;;;;;;5014532;28;20030;-75
2021/12/26 04:08:41;;;;;;;0.95;0.05;;;-4.00;99.00;;;;;;4997002;28;20049;-75
2021/12/26 04:11:07;;;;;;;0.98;0.00;;;-4.00;99.50;;;;;;5014925;28;20020;-75
2021/12/26 04:13:35;;;;;;;1.38;0.10;;;-4.00;99.60;;;;;;4996826;28;20471;-75
2021/12/26 04:16:01;;;;;;;2.95;0.10;;;-4.00;98.60;;;;;;5014473;28;20026;-75
2021/12/26 04:18:26;;;;;;;2.28;0.10;;;-4.10;99.10;;;;;;4996873;28;20041;-75
2021/12/26 04:20:52;;;;;;;0.25;0.05;;;-4.00;98.40;;;;;;5014033;28;20026;-73
2021/12/26 04:23:17;;;;;;;2.38;0.00;;;-4.00;99.10;;;;;;5013263;28;20366;-74
2021/12/26 04:25:43;;;;;;;0.90;0.10;;;-4.00;98.70;;;;;;4996192;28;20387;-74
2021/12/26 04:28:09;;;;;;;2.53;0.00;;;-4.00;99.50;;;;;;4996410;28;20363;-74
2021/12/26 04:30:35;;;;;;;0.25;0.00;;;-4.00;97.90;;;;;;5014278;28;20022;-75
2021/12/26 04:33:01;;;;;;;1.55;0.10;;;-3.90;97.80;;;;;;4996649;28;20014;-74
2021/12/26 04:35:27;;;;;;;0.60;0.00;;;-4.00;99.90;;;;;;5004263;28;20034;-74
2021/12/26 04:37:53;;;;;;;2.08;0.00;;;-4.00;99.30;;;;;;4994562;28;20483;-74
2021/12/26 04:40:20;;;;;;;0.17;0.00;;;-4.00;98.30;;;;;;4994539;28;20029;-75
2021/12/26 04:42:47;;;;;;;0.10;0.00;;;-4.00;99.70;;;;;;4994601;28;20030;-75
2021/12/26 04:45:14;;;;;;;0.60;0.08;;;-4.00;99.10;;;;;;4976989;28;20034;-74
2021/12/26 04:47:41;;;;;;;1.17;0.00;;;-4.00;99.10;;;;;;4980486;28;20018;-73
2021/12/26 04:50:11;;;;;;;0.82;0.00;;;-4.10;99.10;;;;;;4996645;28;20029;-74
2021/12/26 04:52:39;;;;;;;0.98;0.10;;;-4.10;99.40;;;;;;4996674;28;20065;-75
2021/12/26 04:55:05;;;;;;;1.48;0.00;;;-4.00;99.70;;;;;;5013803;28;20032;-73
2021/12/26 04:57:31;;;;;;;1.05;0.10;;;-4.10;98.60;;;;;;4996403;28;20026;-74
2021/12/26 04:59:57;;;;;;;2.08;0.00;;;-4.10;99.90;;;;;;5016227;28;20119;-75
2021/12/26 05:02:23;;;;;;;1.58;0.00;;;-4.10;99.90;;;;;;5016500;28;20021;-75
2021/12/26 05:04:48;;;;;;;2.50;0.10;;;-4.10;98.80;;;;;;5005402;28;20507;-75
2021/12/26 05:07:14;;;;;;;0.43;0.00;;;-4.10;99.90;;;;;;4998073;28;20022;-74
2021/12/26 05:09:41;;;;;;;1.25;0.03;;;-4.10;99.20;;;;;;4998179;28;20029;-74
2021/12/26 05:12:07;;;;;;;0.88;0.00;;;-4.00;97.90;;;;;;4980384;28;20081;-74
2021/12/26 05:14:33;;;;;;;0.30;0.00;;;-4.00;98.10;;;;;;4998587;28;20442;-74
2021/12/26 05:16:58;;;;;;;0.50;0.00;;;-4.10;98.90;;;;;;4997743;28;20058;-74
2021/12/26 05:19:24;;;;;;;1.40;0.10;;;-4.10;99.40;;;;;;4997579;28;20097;-74
2021/12/26 05:21:49;;;;;;;0.88;0.10;;;-4.10;99.20;;;;;;4997346;28;20065;-74
2021/12/26 05:24:15;;;;;;;4.47;0.10;;;-4.10;99.80;;;;;;4998125;28;20018;-74
2021/12/26 05:26:40;;;;;;;0.65;0.00;;;-4.10;99.90;;;;;;4998012;28;20367;-74
2021/12/26 05:29:06;;;;;;;1.25;0.08;;;-4.10;99.90;;;;;;4997666;28;20026;-74
2021/12/26 05:31:32;;;;;;;0.60;0.00;;;-4.10;99.60;;;;;;4997705;28;20022;-74
2021/12/26 05:33:57;;;;;;;0.38;0.00;;;-4.10;99.80;;;;;;4998031;28;20031;-73
2021/12/26 05:36:23;;;;;;;1.30;0.03;;;-4.10;99.90;;;;;;5014883;28;20030;-74
2021/12/26 05:38:48;;;;;;;1.33;0.00;;;-4.10;99.90;;;;;;5015965;28;20064;-73
2021/12/26 05:41:14;;;;;;;2.08;0.00;;;-4.10;99.50;;;;;;5016929;28;20033;-73
2021/12/26 05:43:40;;;;;;;1.23;0.20;;;-4.10;99.90;;;;;;5016846;28;20026;-73
2021/12/26 05:46:06;;;;;;;1.05;0.55;;;-4.10;99.90;;;;;;5015756;28;20022;-74
2021/12/26 05:48:32;;;;;;;0.57;0.00;;;-4.10;99.90;;;;;;5017197;28;20030;-73
2021/12/26 05:50:57;;;;;;;0.85;0.00;;;-4.10;99.90;;;;;;5016678;28;20022;-75
2021/12/26 05:53:23;;;;;;;4.18;0.30;;;-4.10;99.90;;;;;;5016821;28;20040;-75
2021/12/26 05:55:48;;;;;;;0.52;0.00;;;-4.10;99.90;;;;;;5016864;28;20029;-75
2021/12/26 05:58:14;;;;;;;1.17;0.00;;;-4.10;99.90;;;;;;5015421;28;20033;-75
2021/12/26 06:00:39;;;;;;;0.32;0.00;;;-4.10;99.90;;;;;;4999274;28;20025;-75
2021/12/26 06:03:05;;;;;;;1.00;0.08;;;-4.10;99.40;;;;;;5016395;28;20072;-75
2021/12/26 06:05:30;;;;;;;0.52;0.03;;;-4.10;99.90;;;;;;5016391;28;20127;-74
2021/12/26 06:07:56;;;;;;;4.28;0.10;;;-4.10;99.90;;;;;;5016611;28;20077;-75
2021/12/26 06:10:21;;;;;;;0.63;0.10;;;-4.00;99.90;;;;;;5016168;28;20030;-75
2021/12/26 06:12:47;;;;;;;0.65;0.10;;;-4.10;99.90;;;;;;5016221;28;20037;-75
2021/12/26 06:15:13;;;;;;;1.88;0.10;;;-4.10;99.50;;;;;;5016840;28;20026;-75
2021/12/26 06:17:39;;;;;;;0.10;0.00;;;-4.10;99.90;;;;;;4998707;28;20084;-75
2021/12/26 06:20:13;;;;;;;2.38;0.00;;;-4.10;99.90;;;;;;5016766;28;20025;-75
2021/12/26 06:22:39;;;;;;;2.55;0.00;;;-4.10;99.90;;;;;;5016579;28;20036;-75
2021/12/26 06:25:05;;;;;;;1.17;0.05;;;-4.00;99.90;;;;;;4998761;28;20379;-75
2021/12/26 06:27:30;;;;;;;0.70;0.00;;;-4.10;99.90;;;;;;4998879;28;20032;-75
2021/12/26 06:29:56;;;;;;;2.33;0.10;;;-4.10;99.90;;;;;;5016394;28;20124;-75
2021/12/26 06:32:21;;;;;;;0.88;0.10;;;-4.10;99.90;;;;;;5016383;28;20064;-75
2021/12/26 06:34:47;;;;;;;1.20;0.00;;;-4.10;99.90;;;;;;5016540;28;20026;-75
2021/12/26 06:37:12;;;;;;;2.33;0.10;;;-4.10;99.90;;;;;;5016089;28;20036;-75
2021/12/26 06:39:38;;;;;;;2.47;0.10;;;-4.10;99.90;;;;;;5001356;28;20157;-75
2021/12/26 06:42:04;;;;;;;0.10;0.00;;;-4.10;99.90;;;;;;4996230;28;20077;-75
2021/12/26 06:44:29;;;;;;;0.85;0.08;;;-4.10;99.90;;;;;;4995951;28;20443;-75
2021/12/26 06:46:55;;;;;;;1.77;0.05;;;-4.10;99.90;;;;;;4996322;28;20098;-75
2021/12/26 06:49:20;;;;;;;0.60;0.10;;;-4.10;99.90;;;;;;4994940;28;20022;-74
2021/12/26 06:51:46;;;;;;;2.17;0.00;;;-4.10;99.90;;;;;;4996325;28;20038;-75
2021/12/26 06:54:12;;;;;;;1.60;0.10;;;-4.10;99.90;;;;;;4995094;28;20100;-75
2021/12/26 06:56:37;;;;;;;0.57;0.00;;;-4.10;99.90;;;;;;4996436;28;20092;-75
2021/12/26 06:59:03;;;;;;;2.67;0.00;;;-4.10;99.90;;;;;;4996153;28;20030;-74
2021/12/26 07:01:28;;;;;;;1.58;0.03;;;-4.10;99.90;;;;;;4995811;28;20026;-74
2021/12/26 07:03:54;;;;;;;3.75;0.00;;;-4.10;99.90;;;;;;4995644;28;20100;-74
2021/12/26 07:06:20;;;;;;;1.85;0.00;;;-4.10;99.90;;;;;;4996094;28;20088;-75
2021/12/26 07:08:46;;;;;;;2.92;0.00;;;-4.10;99.90;;;;;;4996004;28;20026;-75
2021/12/26 07:11:11;;;;;;;0.57;0.00;;;-4.20;99.90;;;;;;4995641;28;20117;-75
2021/12/26 07:13:37;;;;;;;1.02;0.00;;;-4.10;99.90;;;;;;4995808;28;20356;-75
2021/12/26 07:16:03;;;;;;;0.30;0.00;;;-4.10;99.90;;;;;;4978034;28;20033;-75
2021/12/26 07:18:28;;;;;;;0.43;0.00;;;-4.10;99.90;;;;;;4978136;28;20098;-75
2021/12/26 07:20:54;;;;;;;1.38;0.20;;;-4.10;99.90;;;;;;4996293;28;20061;-75
2021/12/26 07:23:20;;;;;;;0.68;0.10;;;-4.10;99.90;;;;;;4995120;28;20375;-75
2021/12/26 07:25:46;;;;;;;1.17;0.15;;;-4.10;99.90;;;;;;4995543;28;20081;-75
2021/12/26 07:28:11;;;;;;;4.50;0.10;;;-4.10;99.90;;;;;;4995270;28;20022;-75
2021/12/26 07:30:37;;;;;;;1.58;0.00;;;-4.10;99.90;;;;;;4995295;28;20061;-75
2021/12/26 07:33:02;;;;;;;0.50;0.00;;;-4.10;99.90;;;;;;4995533;28;20027;-75
2021/12/26 07:35:28;;;;;;;2.22;0.00;;;-4.10;99.90;;;;;;4994015;28;20444;-75
2021/12/26 07:37:53;;;;;;;0.40;0.00;;;-4.10;99.90;;;;;;4994108;28;20030;-75
2021/12/26 07:40:20;;;;;;;1.65;0.00;;;-4.10;99.90;;;;;;4995210;28;20096;-74
2021/12/26 07:42:46;;;;;;;0.70;0.00;;;-4.00;99.90;;;;;;4995094;28;20023;-74
2021/12/26 07:45:12;;;;;;;0.82;0.28;;;-4.00;99.90;;;;;;4993871;28;20037;-74
2021/12/26 07:47:39;;;;;;;1.13;0.00;;;-4.00;99.90;;;;;;4993946;28;20395;-75
2021/12/26 07:50:05;;;;;;;1.17;0.00;;;-4.00;99.90;;;;;;4996192;28;20029;-75
2021/12/26 07:52:36;;;;;;;3.97;0.00;;;-4.00;99.90;;;;;;4993676;28;20022;-75
2021/12/26 07:55:03;;;;;;;2.47;0.15;;;-3.30;99.90;;;;;;4993774;28;20022;-75
2021/12/26 07:57:29;;;;;;;5.75;0.00;;;-4.10;99.90;;;;;;4993750;28;20026;-75
2021/12/26 07:59:54;;;;;;;1.25;0.00;;;-4.10;99.90;;;;;;4995107;28;20034;-75
2021/12/26 08:02:20;;;;;;;0.98;0.00;;;-4.10;99.90;;;;;;4995195;28;20033;-75
2021/12/26 08:04:47;;;;;;;1.58;0.10;;;-4.00;99.90;;;;;;4994771;28;20391;-75
2021/12/26 08:07:13;;;;;;;1.90;0.05;;;-4.00;99.90;;;;;;4994832;28;20030;-75
2021/12/26 08:09:39;;;;;;;1.75;0.10;;;-4.00;99.90;;;;;;4994875;28;20019;-75
2021/12/26 08:12:05;;;;;;;0.40;0.00;;;-3.90;99.90;;;;;;4994762;28;20022;-75
2021/12/26 08:14:31;;;;;;;1.08;0.10;;;-3.90;99.90;;;;;;4994717;28;20061;-75
2021/12/26 08:16:56;;;;;;;2.83;0.20;;;-3.90;99.90;;;;;;4977566;28;20022;-75
2021/12/26 08:19:22;;;;;;;2.10;0.00;;;-3.90;99.90;;;;;;5008979;28;20017;-75
2021/12/26 08:21:51;;;;;;;1.60;0.10;;;-3.80;99.90;;;;;;5014262;28;20026;-76
2021/12/26 08:24:17;;;;;;;4.15;0.28;;;-3.80;99.90;;;;;;5014629;28;20060;-75
2021/12/26 08:26:43;;;;;;;1.75;0.10;;;-3.70;99.90;;;;;;4996533;28;20033;-75
2021/12/26 08:29:09;;;;;;;2.55;0.10;;;-3.70;99.90;;;;;;4996516;28;20021;-75
2021/12/26 08:31:34;;;;;;;1.58;0.05;;;-3.60;99.90;;;;;;4996514;28;20022;-75
2021/12/26 08:34:00;;;;;;;0.47;0.10;;;-3.60;99.90;;;;;;4996119;28;20117;-75
2021/12/26 08:36:26;;;;;;;0.82;0.10;;;-3.50;99.90;;;;;;5013947;28;20109;-74
2021/12/26 08:38:51;;;;;;;2.90;0.00;;;-3.50;99.90;;;;;;5014093;28;20034;-74
2021/12/26 08:41:17;;;;;;;1.77;0.20;;;-3.40;99.90;;;;;;4996227;28;20037;-75
2021/12/26 08:43:43;;;;;;;2.60;0.10;;;-3.40;99.90;;;;;;5013588;28;20030;-75
2021/12/26 08:46:10;;;;;;;0.50;0.00;;;-3.30;99.90;;;;;;5013945;28;20034;-74
2021/12/26 08:48:36;;;;;;;1.85;0.03;;;-3.20;99.90;;;;;;4985125;28;20337;-75
2021/12/26 08:51:02;;;;;;;0.73;0.10;;;-3.20;99.90;;;;;;4994539;28;20081;-74
2021/12/26 08:53:28;;;;;;;2.20;0.15;;;-3.10;99.90;;;;;;4994114;28;20069;-74
2021/12/26 08:55:57;;;;;;;0.35;0.00;;;-3.10;99.90;;;;;;4998473;28;20042;-75
2021/12/26 08:58:23;;;;;;;1.95;0.35;;;-3.00;99.90;;;;;;5014456;28;20026;-75
2021/12/26 09:00:49;;;;;;;3.60;0.10;;;-2.90;99.90;;;;;;5013864;28;20032;-74
2021/12/26 09:03:15;;;;;;;3.47;0.05;;;-2.80;99.90;;;;;;4996036;28;20048;-75
2021/12/26 09:05:40;;;;;;;4.13;0.30;;;-2.70;99.90;;;;;;5012982;28;20026;-74
2021/12/26 09:08:07;;;;;;;0.60;0.13;;;-2.70;99.90;;;;;;5014240;28;20234;-74
2021/12/26 09:10:33;;;;;;;1.95;0.00;;;-2.70;99.90;;;;;;5013312;28;20172;-74
2021/12/26 09:12:59;;;;;;;0.50;0.10;;;-2.60;99.90;;;;;;5013679;28;20030;-74
2021/12/26 09:15:25;;;;;;;2.83;0.00;;;-2.50;99.90;;;;;;5014097;28;20021;-74
2021/12/26 09:17:50;;;;;;;2.70;0.10;;;-2.50;99.90;;;;;;5012601;28;20091;-74
2021/12/26 09:20:16;;;;;;;1.20;0.10;;;-2.40;99.90;;;;;;4994871;28;20026;-74
2021/12/26 09:22:42;;;;;;;0.90;0.00;;;-2.40;99.90;;;;;;5007056;28;20018;-75
2021/12/26 09:25:10;;;;;;;1.52;0.30;;;-2.30;99.90;;;;;;5013766;28;20022;-74
2021/12/26 09:27:36;;;;;;;1.52;0.10;;;-2.30;99.90;;;;;;5013674;28;20026;-74
2021/12/26 09:30:03;;;;;;;0.95;0.13;;;-2.20;99.90;;;;;;4995990;28;20382;-75
2021/12/26 09:32:28;;;;;;;1.67;0.10;;;-2.10;99.90;;;;;;5013685;28;20022;-75
2021/12/26 09:34:54;;;;;;;1.23;0.10;;;-2.10;99.90;;;;;;5012608;28;20061;-75
2021/12/26 09:37:19;;;;;;;1.02;0.20;;;-2.00;99.90;;;;;;4996033;28;20018;-74
2021/12/26 09:39:45;;;;;;;1.92;0.63;;;-1.90;99.90;;;;;;5012313;28;20088;-74
2021/12/26 09:42:11;;;;;;;1.52;0.38;;;-1.80;99.90;;;;;;4981468;28;20029;-74
2021/12/26 09:44:38;;;;;;;1.05;0.30;;;-1.70;99.90;;;;;;4993847;28;20045;-74
2021/12/26 09:47:05;;;;;;;0.43;0.10;;;-1.70;99.90;;;;;;4979997;28;20022;-74
2021/12/26 09:49:31;;;;;;;0.35;0.10;;;-1.60;99.90;;;;;;4997628;28;20026;-74
2021/12/26 09:51:57;;;;;;;1.15;0.17;;;-1.60;99.90;;;;;;4997307;28;20027;-74
2021/12/26 09:54:23;;;;;;;1.02;0.20;;;-1.50;99.90;;;;;;4997258;28;20030;-74
2021/12/26 09:56:48;;;;;;;0.77;0.00;;;-1.40;99.70;;;;;;4997365;28;20027;-74
2021/12/26 09:59:17;;;;;;;0.50;0.10;;;-1.40;99.90;;;;;;5014829;28;20030;-74
2021/12/26 10:01:47;;;;;;;1.15;0.20;;;-1.40;99.90;;;;;;5016667;28;20430;-76
2021/12/26 10:04:24;;;;;;;2.30;0.00;;;-1.30;99.90;;;;;;4994663;28;20029;-76
2021/12/26 10:07:09;;;;;;;0.85;0.17;;;-1.20;99.90;;;;;;5016558;28;20033;-76
2021/12/26 10:09:43;;;;;;;2.30;0.10;;;-1.10;99.80;;;;;;5016704;28;20062;-75
2021/12/26 10:12:13;;;;;;;0.75;0.10;;;-1.10;99.30;;;;;;5016563;28;20479;-76
2021/12/26 10:14:40;;;;;;;1.75;0.20;;;-1.00;99.90;;;;;;4998969;28;20018;-75
2021/12/26 10:17:12;;;;;;;1.60;0.20;;;-1.00;99.90;;;;;;5016609;28;20101;-76
2021/12/26 10:19:45;;;;;;;1.25;0.10;;;-0.90;99.90;;;;;;4999908;28;20081;-75
2021/12/26 10:22:13;;;;;;;2.47;0.22;;;-0.80;99.90;;;;;;5014842;28;20489;-76
2021/12/26 10:24:44;;;;;;;1.07;0.20;;;-0.80;99.90;;;;;;4998860;28;20022;-75
2021/12/26 10:27:13;;;;;;;2.80;0.10;;;-0.60;99.90;;;;;;5016279;28;20257;-76
2021/12/26 10:29:43;;;;;;;1.90;0.45;;;-0.60;99.90;;;;;;4998705;28;20034;-75
2021/12/26 10:32:15;;;;;;;1.38;0.30;;;-0.50;99.90;;;;;;5016579;28;20394;-75
2021/12/26 10:34:43;;;;;;;1.40;0.10;;;-0.50;99.90;;;;;;5016102;28;20022;-75
2021/12/26 10:37:16;;;;;;;1.45;0.35;;;-0.40;99.90;;;;;;4995113;28;20019;-75
2021/12/26 10:40:11;;;;;;;3.90;0.20;;;-0.40;99.90;;;;;;4979447;28;20027;-75
2021/12/26 10:42:39;;;;;;;1.67;0.15;;;-0.30;99.90;;;;;;4968145;28;20077;-76
2021/12/26 10:45:12;;;;;;;0.90;0.10;;;-0.20;99.90;;;;;;4995240;28;20034;-76
2021/12/26 10:47:40;;;;;;;0.52;0.10;;;-0.20;99.90;;;;;;5016233;28;20032;-76
2021/12/26 10:50:09;;;;;;;3.17;0.35;;;-0.20;99.90;;;;;;5015873;28;20423;-76
2021/12/26 10:52:51;;;;;;;1.45;0.13;;;-0.20;99.90;;;;;;5015950;28;20105;-76
2021/12/26 10:55:20;;;;;;;3.10;0.10;;;-0.30;99.90;;;;;;5015705;28;20037;-76
2021/12/26 10:57:49;;;;;;;1.58;0.40;;;-0.30;99.90;;;;;;5015847;28;20028;-75
2021/12/26 11:00:16;;;;;;;1.17;0.20;;;-0.30;99.90;;;;;;5015384;28;20026;-76
2021/12/26 11:02:48;;;;;;;2.45;0.35;;;-0.30;99.90;;;;;;5015507;28;20026;-75
2021/12/26 11:05:23;;;;;;;2.17;0.30;;;-0.20;99.90;;;;;;4997848;28;20022;-76
2021/12/26 11:08:00;;;;;;;0.93;0.15;;;-0.20;99.90;;;;;;5014091;28;20478;-76
2021/12/26 11:10:42;;;;;;;1.58;0.30;;;-0.10;99.90;;;;;;4997870;28;20014;-76
2021/12/26 11:13:20;;;;;;;1.60;0.57;;;0.00;99.90;;;;;;5016033;28;20033;-76
2021/12/26 11:15:46;;;;;;;1.25;0.22;;;0.10;99.90;;;;;;5014432;28;20044;-76
2021/12/26 11:18:15;;;;;;;1.80;0.40;;;0.20;99.90;;;;;;5015610;28;20097;-76
2021/12/26 11:20:44;;;;;;;4.00;0.38;;;0.30;99.90;;;;;;5015343;28;20026;-76
2021/12/26 11:23:13;;;;;;;2.88;0.47;;;0.40;99.90;;;;;;4997539;28;20462;-76
2021/12/26 11:25:55;;;;;;;6.72;0.60;;;0.50;99.90;;;;;;4997477;28;20058;-76
2021/12/26 11:28:30;;;;;;;2.65;0.82;;;0.60;99.90;;;;;;5015525;28;20021;-76
2021/12/26 11:31:06;;;;;;;2.63;0.50;;;0.70;99.90;;;;;;5015319;28;20053;-76
2021/12/26 11:33:32;;;;;;;3.20;0.45;;;0.80;99.90;;;;;;5007892;28;20463;-76
2021/12/26 11:36:00;;;;;;;1.67;0.30;;;0.90;99.90;;;;;;4995331;28;20032;-76
2021/12/26 11:38:27;;;;;;;3.20;0.55;;;0.90;99.90;;;;;;5003848;28;20364;-76
2021/12/26 11:40:56;;;;;;;3.72;1.10;;;1.00;99.90;;;;;;5013878;28;20026;-76
2021/12/26 11:43:47;;;;;;;1.88;0.73;;;1.00;99.90;;;;;;4997311;28;20483;-76
2021/12/26 11:46:40;;;;;;;2.17;0.40;;;1.10;99.90;;;;;;5015175;28;20407;-76
2021/12/26 11:49:43;;;;;;;2.92;0.57;;;1.20;99.90;;;;;;5013193;28;20105;-76
2021/12/26 11:52:35;;;;;;;3.85;1.05;;;1.20;99.90;;;;;;4997188;28;20029;-76
2021/12/26 11:55:22;;;;;;;4.45;0.60;;;1.20;99.90;;;;;;5014757;28;20403;-76
2021/12/26 11:58:05;;;;;;;1.65;0.52;;;1.20;99.90;;;;;;5015058;28;20030;-76
2021/12/26 12:00:37;;;;;;;9.55;0.88;;;1.30;99.90;;;;;;4995016;28;20030;-76
2021/12/26 12:03:26;;;;;;;3.88;0.70;;;1.30;99.90;;;;;;4993706;28;20022;-76
2021/12/26 12:05:53;;;;;;;2.95;0.63;;;1.40;99.90;;;;;;4995064;28;20041;-75
2021/12/26 12:08:31;;;;;;;4.55;0.75;;;1.50;99.90;;;;;;5000987;28;20102;-75
2021/12/26 12:11:02;;;;;;;1.75;0.68;;;1.60;99.90;;;;;;4996813;28;20415;-74
2021/12/26 12:13:48;;;;;;;1.80;0.63;;;1.60;99.90;;;;;;5013660;28;20129;-75
2021/12/26 12:16:30;;;;;;;2.08;0.32;;;1.70;99.90;;;;;;5013864;28;20029;-77
2021/12/26 12:18:59;;;;;;;1.65;0.35;;;1.80;99.90;;;;;;5013801;28;20026;-76
2021/12/26 12:21:43;;;;;;;4.45;0.70;;;1.90;99.90;;;;;;5014217;28;20026;-76
2021/12/26 12:24:23;;;;;;;2.88;0.57;;;1.90;99.90;;;;;;5013077;28;20101;-76
2021/12/26 12:26:50;;;;;;;3.63;0.50;;;1.90;99.90;;;;;;5013925;28;20025;-77
2021/12/26 12:29:24;;;;;;;4.70;0.65;;;2.00;99.90;;;;;;5014327;28;20463;-76
2021/12/26 12:32:08;;;;;;;2.90;0.60;;;2.00;99.90;;;;;;5013912;28;20033;-76
2021/12/26 12:34:54;;;;;;;3.50;1.42;;;2.10;99.90;;;;;;5014383;28;20125;-76
2021/12/26 12:37:37;;;;;;;1.67;0.63;;;2.10;99.90;;;;;;5012884;28;20018;-76
2021/12/26 12:40:15;;;;;;;4.40;0.85;;;2.10;99.90;;;;;;5013952;28;20026;-76
2021/12/26 12:43:12;;;;;;;2.67;0.90;;;2.10;99.90;;;;;;5014054;28;20052;-76
2021/12/26 12:45:57;;;;;;;3.58;1.25;;;2.10;99.90;;;;;;4994251;28;20286;-76
2021/12/26 12:48:31;;;;;;;6.13;1.17;;;2.00;99.90;;;;;;4994223;28;20046;-76
2021/12/26 12:51:00;;;;;;;3.08;1.25;;;2.10;99.90;;;;;;5011249;28;20053;-77
2021/12/26 12:53:54;;;;;;;4.25;0.95;;;2.10;99.90;;;;;;5013668;28;20062;-77
2021/12/26 12:56:33;;;;;;;3.22;0.90;;;2.10;99.90;;;;;;5014228;28;20053;-77
2021/12/26 12:59:19;;;;;;;4.78;1.08;;;2.10;99.90;;;;;;5013907;28;20033;-77